Time;durP1;ratioP1;P1;durP2;ratioP2;P2;SDS_P1;SDS_P2;PMS_P1;PMS_P2;Temp;Humidity;BMP_temperature;BMP_pressure;BME280_temperature;BME280_humidity;BME280_pressure;Samples;Min_cycle;Max_cycle;Signal;HPM_P1;HPM_P2
2022/04/21 00:00:20;;;;;;;9.20;5.68;;;;;;;;;;5031278;28;20436;-64
2022/04/21 00:02:46;;;;;;;8.75;5.78;;;;;;;;;;5033575;28;20501;-64
2022/04/21 00:05:12;;;;;;;8.77;5.70;;;;;;;;;;5030243;28;20434;-64
2022/04/21 00:07:39;;;;;;;9.55;6.05;;;;;;;;;;5030099;28;20423;-64
2022/04/21 00:10:06;;;;;;;10.90;6.20;;;;;;;;;;5029537;28;20432;-65
2022/04/21 00:12:34;;;;;;;11.47;6.33;;;;;;;;;;5034715;28;20426;-65
2022/04/21 00:15:00;;;;;;;9.73;6.65;;;;;;;;;;5034457;28;20488;-64
2022/04/21 00:17:25;;;;;;;10.07;6.78;;;7.90;99.90;;;;;;5027024;28;20426;-64
2022/04/21 00:19:51;;;;;;;10.00;6.53;;;;;;;;;;5028249;28;20490;-64
2022/04/21 00:25:03;;;;;;;10.65;6.68;;;;;;;;;;5024727;28;20411;-65
2022/04/21 00:27:29;;;;;;;8.88;6.25;;;;;;;;;;5035157;28;20454;-66
2022/04/21 00:29:56;;;;;;;9.43;6.90;;;8.10;99.90;;;;;;5031738;28;20430;-65
2022/04/21 00:32:22;;;;;;;11.23;6.55;;;;;;;;;;5026899;28;20411;-66
2022/04/21 00:34:49;;;;;;;10.33;7.10;;;8.00;99.90;;;;;;5026374;28;20479;-64
2022/04/21 00:37:14;;;;;;;10.77;6.78;;;8.10;99.90;;;;;;5026614;28;20439;-65
2022/04/21 00:39:40;;;;;;;10.67;6.97;;;8.10;99.90;;;;;;5033160;28;21139;-65
2022/04/21 00:42:07;;;;;;;11.10;7.33;;;;;;;;;;5024716;28;20430;-66
2022/04/21 00:44:34;;;;;;;10.07;7.10;;;;;;;;;;5023959;28;20926;-64
2022/04/21 00:47:03;;;;;;;9.63;7.05;;;8.10;99.90;;;;;;5024165;28;20436;-65
2022/04/21 00:49:30;;;;;;;10.35;6.88;;;;;;;;;;5031471;28;20438;-64
2022/04/21 00:51:59;;;;;;;11.55;7.90;;;8.10;99.90;;;;;;5028001;28;20423;-64
2022/04/21 00:54:25;;;;;;;10.88;7.15;;;;;;;;;;5012581;28;20484;-65
2022/04/21 00:56:51;;;;;;;13.13;8.17;;;;;;;;;;5026387;28;20441;-65
2022/04/21 00:59:17;;;;;;;11.57;7.90;;;;;;;;;;5028846;28;20441;-65
2022/04/21 01:04:28;;;;;;;12.10;8.07;;;;;;;;;;5024961;28;20864;-64
2022/04/21 01:06:56;;;;;;;11.15;7.78;;;;;;;;;;5027187;28;20453;-65
2022/04/21 01:09:22;;;;;;;12.93;8.77;;;;;;;;;;5029290;28;20419;-64
2022/04/21 01:11:49;;;;;;;11.52;8.13;;;;;;;;;;5034240;28;20474;-65
2022/04/21 01:14:15;;;;;;;13.80;8.38;;;;;;;;;;5033941;28;20415;-66
2022/04/21 01:16:41;;;;;;;13.25;8.70;;;;;;;;;;5031178;28;20425;-65
2022/04/21 01:19:07;;;;;;;11.27;8.07;;;;;;;;;;5028479;28;20447;-65
2022/04/21 01:21:33;;;;;;;13.30;8.55;;;7.80;99.90;;;;;;5034181;28;20427;-64
2022/04/21 01:23:59;;;;;;;13.67;8.63;;;7.80;99.90;;;;;;5027912;28;20429;-64
2022/04/21 01:26:29;;;;;;;13.80;8.87;;;;;;;;;;5030610;28;20449;-64
2022/04/21 01:28:55;;;;;;;12.93;9.18;;;;;;;;;;5029313;28;20431;-64
2022/04/21 01:31:24;;;;;;;12.32;8.60;;;;;;;;;;5037977;28;20437;-65
2022/04/21 01:33:50;;;;;;;13.93;8.95;;;;;;;;;;5038508;28;20495;-65
2022/04/21 01:36:17;;;;;;;14.68;9.75;;;;;;;;;;5027567;28;20435;-65
2022/04/21 01:41:27;;;;;;;13.35;9.68;;;;;;;;;;5028506;28;20429;-64
2022/04/21 01:43:53;;;;;;;15.88;9.98;;;7.70;99.90;;;;;;5033547;28;20431;-65
2022/04/21 01:46:19;;;;;;;13.38;9.55;;;;;;;;;;5029268;28;20426;-65
2022/04/21 01:48:46;;;;;;;16.73;10.05;;;;;;;;;;5031780;28;21296;-65
2022/04/21 01:51:12;;;;;;;15.30;10.52;;;;;;;;;;5034076;28;21110;-66
2022/04/21 01:53:38;;;;;;;14.82;10.30;;;;;;;;;;5025688;28;20425;-65
2022/04/21 01:56:04;;;;;;;15.00;10.48;;;;;;;;;;5032239;28;20423;-64
2022/04/21 01:58:30;;;;;;;15.95;11.43;;;;;;;;;;5033816;28;20516;-65
2022/04/21 02:00:56;;;;;;;16.48;11.45;;;7.60;99.90;;;;;;5034486;28;20427;-65
2022/04/21 02:03:22;;;;;;;15.52;11.23;;;;;;;;;;5035697;28;20419;-65
2022/04/21 02:05:48;;;;;;;17.05;10.73;;;;;;;;;;5032502;28;20906;-66
2022/04/21 02:08:15;;;;;;;15.50;10.90;;;;;;;;;;5028838;28;20425;-64
2022/04/21 02:10:42;;;;;;;19.55;12.13;;;;;;;;;;5033248;28;20828;-65
2022/04/21 02:13:08;;;;;;;19.00;11.60;;;;;;;;;;5028130;28;20428;-65
2022/04/21 02:15:34;;;;;;;17.52;11.85;;;;;;;;;;5029060;28;20972;-65
2022/04/21 02:18:03;;;;;;;18.35;11.88;;;7.40;99.90;;;;;;5038028;28;20426;-64
2022/04/21 02:20:29;;;;;;;18.23;12.25;;;;;;;;;;5023560;28;20933;-65
2022/04/21 02:22:55;;;;;;;16.93;12.10;;;7.40;99.90;;;;;;5034809;28;20415;-64
2022/04/21 02:25:21;;;;;;;20.03;12.20;;;;;;;;;;5035527;28;20513;-65
2022/04/21 02:27:48;;;;;;;21.77;13.50;;;;;;;;;;5035430;28;20433;-65
2022/04/21 02:30:15;;;;;;;17.90;12.95;;;;;;;;;;5029031;28;20658;-64
2022/04/21 02:32:41;;;;;;;18.73;13.20;;;;;;;;;;5027786;28;20434;-64
2022/04/21 02:35:08;;;;;;;17.67;12.68;;;;;;;;;;5028846;28;20927;-64
2022/04/21 02:37:37;;;;;;;18.40;13.40;;;;;;;;;;5028859;28;20421;-65
2022/04/21 02:40:04;;;;;;;18.63;12.95;;;;;;;;;;5028787;28;20438;-65
2022/04/21 02:42:30;;;;;;;19.83;13.27;;;;;;;;;;5034238;28;20653;-64
2022/04/21 02:44:56;;;;;;;20.10;14.23;;;;;;;;;;5036014;28;20439;-64
2022/04/21 02:47:22;;;;;;;18.85;13.55;;;;;;;;;;5020745;28;20484;-64
2022/04/21 02:49:50;;;;;;;20.05;13.63;;;;;;;;;;5026747;28;20436;-65
2022/04/21 02:52:17;;;;;;;19.70;14.17;;;;;;;;;;5037043;28;20415;-65
2022/04/21 02:57:27;;;;;;;19.05;13.93;;;;;;;;;;5025838;28;20440;-64
2022/04/21 02:59:55;;;;;;;22.63;14.02;;;7.00;99.90;;;;;;5027748;28;20502;-64
2022/04/21 03:02:22;;;;;;;19.67;13.85;;;;;;;;;;5034224;28;20418;-65
2022/04/21 03:04:49;;;;;;;20.63;14.48;;;;;;;;;;5029483;28;20431;-64
2022/04/21 03:07:17;;;;;;;21.87;14.73;;;;;;;;;;5032213;28;20422;-64
2022/04/21 03:09:43;;;;;;;20.35;14.20;;;;;;;;;;5028401;28;20445;-64
2022/04/21 03:12:10;;;;;;;22.00;14.93;;;;;;;;;;5026099;28;20421;-65
2022/04/21 03:14:36;;;;;;;20.20;14.27;;;6.90;99.90;;;;;;5047909;28;20868;-64
2022/04/21 03:17:04;;;;;;;23.55;15.07;;;6.90;99.90;;;;;;5024663;28;20516;-64
2022/04/21 03:19:30;;;;;;;21.50;15.00;;;;;;;;;;5030949;28;20446;-65
2022/04/21 03:24:40;;;;;;;21.58;15.15;;;;;;;;;;5031363;28;20415;-64
2022/04/21 03:27:06;;;;;;;21.02;15.30;;;;;;;;;;5034502;28;20729;-65
2022/04/21 03:29:37;;;;;;;20.50;14.87;;;;;;;;;;5025889;28;20488;-64
2022/04/21 03:32:09;;;;;;;22.30;15.43;;;;;;;;;;5030494;28;20423;-64
2022/04/21 03:34:35;;;;;;;22.60;16.30;;;;;;;;;;5034039;28;20430;-64
2022/04/21 03:37:02;;;;;;;24.00;15.60;;;;;;;;;;5031183;28;20519;-64
2022/04/21 03:39:28;;;;;;;22.67;15.67;;;;;;;;;;5028093;28;20523;-65
2022/04/21 03:41:54;;;;;;;22.92;15.40;;;;;;;;;;5027015;28;20443;-64
2022/04/21 03:44:21;;;;;;;23.13;16.08;;;;;;;;;;5029718;28;20427;-64
2022/04/21 03:46:47;;;;;;;22.88;15.93;;;;;;;;;;5030662;28;20450;-65
2022/04/21 03:49:13;;;;;;;22.13;16.17;;;;;;;;;;5029373;28;20482;-64
2022/04/21 03:51:39;;;;;;;22.35;16.48;;;6.20;99.90;;;;;;5031031;28;20450;-64
2022/04/21 03:54:05;;;;;;;22.15;15.88;;;;;;;;;;5029031;28;20487;-65
2022/04/21 03:56:32;;;;;;;24.52;16.83;;;;;;;;;;5037142;28;20577;-64
2022/04/21 03:58:58;;;;;;;22.75;16.92;;;;;;;;;;5032245;28;20426;-64
2022/04/21 04:01:24;;;;;;;21.75;16.80;;;;;;;;;;5035323;28;20416;-65
2022/04/21 04:03:51;;;;;;;22.88;16.25;;;6.50;99.90;;;;;;5030751;28;20413;-64
2022/04/21 04:11:47;;;;;;;22.58;16.52;;;;;;;;;;5027914;28;20944;-65
2022/04/21 04:14:13;;;;;;;22.60;15.68;;;;;;;;;;5035626;28;20811;-64
2022/04/21 04:16:39;;;;;;;23.00;16.63;;;;;;;;;;5025488;28;20465;-64
2022/04/21 04:19:08;;;;;;;21.45;15.98;;;;;;;;;;5035972;28;20973;-64
2022/04/21 04:21:34;;;;;;;22.13;15.93;;;;;;;;;;5024570;28;20486;-64
2022/04/21 04:24:00;;;;;;;24.40;17.10;;;;;;;;;;5030771;28;20484;-64
2022/04/21 04:26:27;;;;;;;22.95;16.30;;;;;;;;;;5034533;28;20468;-65
2022/04/21 04:28:53;;;;;;;22.10;16.13;;;;;;;;;;5032107;28;20420;-64
2022/04/21 04:31:19;;;;;;;22.95;15.77;;;;;;;;;;5028135;28;21154;-64
2022/04/21 04:33:45;;;;;;;21.30;15.73;;;;;;;;;;5027829;28;20454;-64
2022/04/21 04:36:13;;;;;;;21.40;15.55;;;;;;;;;;5027930;28;20427;-64
2022/04/21 04:38:40;;;;;;;22.40;15.70;;;6.60;99.90;;;;;;5030459;28;20454;-64
2022/04/21 04:43:51;;;;;;;21.65;15.77;;;;;;;;;;5036126;28;20419;-64
2022/04/21 04:46:36;;;;;;;20.65;15.40;;;;;;;;;;5028678;28;20430;-64
2022/04/21 04:49:04;;;;;;;21.35;15.50;;;;;;;;;;5025593;28;20496;-65
2022/04/21 04:51:30;;;;;;;22.75;15.18;;;6.30;99.90;;;;;;5027124;28;20443;-65
2022/04/21 04:53:56;;;;;;;21.95;15.35;;;;;;;;;;5028747;28;20417;-65
2022/04/21 04:56:22;;;;;;;21.98;15.50;;;;;;;;;;5035910;28;20419;-64
2022/04/21 04:58:49;;;;;;;20.30;15.43;;;;;;;;;;5035199;28;20435;-64
2022/04/21 05:01:18;;;;;;;18.77;15.10;;;;;;;;;;5035815;28;20456;-64
2022/04/21 05:03:45;;;;;;;18.63;14.77;;;;;;;;;;5031985;28;20846;-65
2022/04/21 05:06:11;;;;;;;22.58;15.48;;;;;;;;;;5037736;28;20438;-66
2022/04/21 05:08:36;;;;;;;20.92;14.48;;;6.60;99.90;;;;;;5022980;28;20427;-65
2022/04/21 05:11:03;;;;;;;21.75;14.77;;;;;;;;;;5028196;28;20438;-66
2022/04/21 05:13:30;;;;;;;20.45;14.80;;;;;;;;;;5030282;28;20419;-66
2022/04/21 05:15:56;;;;;;;19.88;14.50;;;;;;;;;;5029235;28;20446;-66
2022/04/21 05:18:22;;;;;;;20.67;14.85;;;;;;;;;;5035461;28;20415;-66
2022/04/21 05:20:48;;;;;;;20.05;15.05;;;6.50;99.90;;;;;;5034343;28;20918;-66
2022/04/21 05:23:17;;;;;;;20.67;15.77;;;;;;;;;;5028885;28;20539;-65
2022/04/21 05:25:43;;;;;;;22.80;14.05;;;6.40;99.90;;;;;;5034296;28;20407;-63
2022/04/21 05:28:09;;;;;;;25.38;15.40;;;;;;;;;;5034190;28;20473;-63
2022/04/21 05:33:24;;;;;;;18.50;13.83;;;;;;;;;;5034152;28;20491;-64
2022/04/21 05:35:51;;;;;;;17.88;12.65;;;;;;;;;;5027941;28;20417;-64
2022/04/21 05:38:19;;;;;;;18.23;13.20;;;;;;;;;;5029970;28;20427;-64
2022/04/21 05:40:45;;;;;;;18.63;12.40;;;;;;;;;;5035210;28;20492;-64
2022/04/21 05:43:15;;;;;;;17.52;12.90;;;;;;;;;;5034015;28;20436;-64
2022/04/21 05:45:41;;;;;;;18.03;13.00;;;;;;;;;;5031221;28;20423;-64
2022/04/21 05:48:08;;;;;;;18.52;13.68;;;;;;;;;;5034196;28;20418;-66
2022/04/21 05:50:34;;;;;;;19.80;12.90;;;;;;;;;;5032717;28;20422;-66
2022/04/21 05:53:04;;;;;;;18.42;13.02;;;;;;;;;;5026658;28;20435;-66
2022/04/21 05:55:30;;;;;;;19.55;13.48;;;7.60;99.90;;;;;;5030800;28;20423;-64
2022/04/21 05:57:56;;;;;;;16.42;11.20;;;;;;;;;;5029946;28;20419;-65
2022/04/21 06:00:22;;;;;;;18.13;11.38;;;7.80;99.90;;;;;;5038091;28;20446;-65
2022/04/21 06:02:48;;;;;;;15.40;11.15;;;;;;;;;;5015135;28;20475;-65
2022/04/21 06:05:14;;;;;;;18.27;10.80;;;;;;;;;;5034675;28;20522;-67
2022/04/21 06:07:40;;;;;;;14.40;9.93;;;;;;;;;;5029908;28;20433;-68
2022/04/21 06:10:07;;;;;;;14.30;9.88;;;;;;;;;;5034531;28;20498;-68
2022/04/21 06:12:34;;;;;;;14.43;10.13;;;;;;;;;;5031842;28;20423;-68
2022/04/21 06:15:00;;;;;;;13.43;9.77;;;;;;;;;;5026381;28;20472;-67
2022/04/21 06:17:27;;;;;;;14.23;9.77;;;;;;;;;;5031214;28;20493;-68
2022/04/21 06:19:53;;;;;;;14.77;10.07;;;;;;;;;;5032000;28;20482;-68
2022/04/21 06:22:19;;;;;;;13.05;9.52;;;;;;;;;;5034069;28;20481;-68
2022/04/21 06:24:45;;;;;;;15.23;9.75;;;;;;;;;;5029990;28;20419;-68
2022/04/21 06:27:10;;;;;;;12.20;9.48;;;9.20;99.90;;;;;;5035935;28;21713;-68
2022/04/21 06:29:36;;;;;;;12.80;9.07;;;;;;;;;;5031282;28;20433;-68
2022/04/21 06:32:03;;;;;;;12.60;9.10;;;;;;;;;;5029968;28;20435;-69
2022/04/21 06:34:29;;;;;;;12.23;7.70;;;;;;;;;;5032325;28;20423;-68
2022/04/21 06:36:55;;;;;;;11.37;8.30;;;;;;;;;;5018429;28;20811;-69
2022/04/21 06:39:21;;;;;;;12.38;8.50;;;;;;;;;;5028871;28;20473;-69
2022/04/21 06:41:47;;;;;;;9.77;7.68;;;;;;;;;;5033248;28;20486;-68
2022/04/21 06:49:42;;;;;;;10.10;7.55;;;10.20;99.90;;;;;;5025684;28;20437;-69
2022/04/21 06:52:08;;;;;;;11.68;7.32;;;;;;;;;;5033878;28;20415;-71
2022/04/21 06:54:34;;;;;;;10.45;7.30;;;;;;;;;;5029472;28;20549;-69
2022/04/21 06:57:00;;;;;;;10.38;6.97;;;;;;;;;;5038484;28;20439;-68
2022/04/21 06:59:27;;;;;;;9.95;6.80;;;;;;;;;;5030753;28;20431;-69
2022/04/21 07:01:53;;;;;;;9.35;6.38;;;;;;;;;;5032412;28;20423;-68
2022/04/21 07:04:20;;;;;;;10.38;6.53;;;10.80;99.90;;;;;;5022624;28;20552;-68
2022/04/21 07:06:46;;;;;;;9.02;5.95;;;;;;;;;;5026803;28;20451;-69
2022/04/21 07:09:12;;;;;;;9.55;6.47;;;11.30;99.90;;;;;;5029733;28;21073;-69
2022/04/21 07:11:38;;;;;;;7.57;5.60;;;;;;;;;;5029572;28;20422;-69
2022/04/21 07:14:04;;;;;;;8.50;5.50;;;;;;;;;;5028334;28;20989;-68
2022/04/21 07:16:30;;;;;;;7.35;4.97;;;;;;;;;;5027985;28;20432;-69
2022/04/21 07:18:57;;;;;;;8.13;4.88;;;;;;;;;;5032461;28;20439;-69
2022/04/21 07:21:23;;;;;;;7.47;4.22;;;;;;;;;;5030863;28;20436;-68
2022/04/21 07:23:49;;;;;;;7.88;4.30;;;;;;;;;;5027719;28;20947;-69
2022/04/21 07:26:16;;;;;;;6.50;3.85;;;;;;;;;;5013297;28;20426;-69
2022/04/21 07:28:44;;;;;;;5.43;3.72;;;11.80;99.90;;;;;;5026979;28;20450;-69
2022/04/21 07:31:10;;;;;;;6.22;4.22;;;;;;;;;;5035594;28;20419;-69
2022/04/21 07:33:36;;;;;;;7.75;4.20;;;;;;;;;;5024422;28;20425;-68
2022/04/21 07:36:03;;;;;;;6.32;4.20;;;;;;;;;;5026892;28;20455;-69
2022/04/21 07:38:30;;;;;;;6.10;4.40;;;12.50;99.90;;;;;;5031206;28;20459;-69
2022/04/21 07:40:57;;;;;;;5.95;4.15;;;;;;;;;;5035213;28;20435;-70
2022/04/21 07:43:23;;;;;;;8.63;4.18;;;;;;;;;;5033493;28;20469;-69
2022/04/21 07:45:49;;;;;;;5.82;3.80;;;;;;;;;;5028435;28;20434;-69
2022/04/21 07:48:16;;;;;;;4.90;3.65;;;;;;;;;;5023676;28;20437;-69
2022/04/21 07:50:41;;;;;;;7.15;3.90;;;12.80;99.90;;;;;;5031371;28;20434;-66
2022/04/21 07:53:13;;;;;;;6.15;3.72;;;12.70;99.90;;;;;;5032081;28;20426;-67
2022/04/21 07:55:40;;;;;;;7.07;3.63;;;;;;;;;;5040958;28;21016;-66
2022/04/21 07:58:06;;;;;;;5.57;3.33;;;;;;;;;;5025194;28;20545;-67
2022/04/21 08:00:36;;;;;;;5.72;3.55;;;;;;;;;;5021076;28;20471;-67
2022/04/21 08:03:03;;;;;;;5.00;3.30;;;;;;;;;;5031138;28;20719;-67
2022/04/21 08:05:29;;;;;;;6.20;2.90;;;;;;;;;;5034039;28;21364;-67
2022/04/21 08:07:55;;;;;;;5.77;3.10;;;;;;;;;;5032163;28;20521;-64
2022/04/21 08:10:22;;;;;;;4.80;2.90;;;;;;;;;;5033323;28;20432;-63
2022/04/21 08:12:52;;;;;;;5.13;2.80;;;;;;;;;;5031742;28;20423;-64
2022/04/21 08:15:31;;;;;;;4.43;2.70;;;;;;;;;;5035745;28;20430;-65
2022/04/21 08:17:59;;;;;;;4.30;2.60;;;;;;;;;;5036383;28;20458;-65
2022/04/21 08:20:26;;;;;;;4.15;2.45;;;;;;;;;;5037465;28;20474;-66
2022/04/21 08:22:52;;;;;;;5.15;2.80;;;;;;;;;;5031495;28;20420;-66
2022/04/21 08:33:32;;;;;;;4.13;2.78;;;14.10;99.90;;;;;;5031268;28;20431;-65
2022/04/21 08:35:59;;;;;;;4.93;2.70;;;;;;;;;;5037255;28;20452;-66
2022/04/21 08:38:28;;;;;;;5.07;2.80;;;14.30;99.90;;;;;;5033189;28;20842;-66
2022/04/21 08:40:55;;;;;;;4.88;2.90;;;;;;;;;;5034476;28;20424;-65
2022/04/21 08:43:22;;;;;;;6.38;3.00;;;;;;;;;;5042419;28;20839;-66
2022/04/21 08:45:49;;;;;;;5.55;2.90;;;;;;;;;;5030376;28;20818;-65
2022/04/21 08:48:18;;;;;;;4.50;2.97;;;;;;;;;;5032263;28;20457;-65
2022/04/21 08:50:45;;;;;;;6.78;2.88;;;;;;;;;;5032110;28;20837;-65
2022/04/21 08:53:12;;;;;;;5.50;3.00;;;;;;;;;;5035022;28;20442;-65
2022/04/21 08:55:39;;;;;;;4.47;2.80;;;;;;;;;;5034482;28;20402;-64
2022/04/21 08:58:05;;;;;;;5.63;3.30;;;;;;;;;;5030845;28;20432;-66
2022/04/21 09:00:31;;;;;;;5.97;3.10;;;;;;;;;;5030367;28;20442;-65
2022/04/21 09:02:58;;;;;;;5.43;3.40;;;;;;;;;;5030986;28;21293;-66
2022/04/21 09:05:27;;;;;;;7.65;3.63;;;;;;;;;;5032832;28;20431;-66
2022/04/21 09:07:53;;;;;;;4.90;3.47;;;14.70;99.90;;;;;;5027185;28;20869;-66
2022/04/21 09:10:21;;;;;;;5.97;3.50;;;;;;;;;;5037241;28;20426;-66
2022/04/21 09:12:48;;;;;;;5.40;3.45;;;;;;;;;;5035221;28;20450;-66
2022/04/21 09:15:16;;;;;;;7.32;3.42;;;;;;;;;;5031229;28;20438;-66
2022/04/21 09:17:43;;;;;;;6.77;3.30;;;;;;;;;;5037806;28;20431;-66
2022/04/21 09:20:09;;;;;;;4.82;3.45;;;;;;;;;;5032702;28;20434;-66
2022/04/21 09:22:39;;;;;;;8.32;3.65;;;;;;;;;;5025633;28;20429;-66
2022/04/21 09:25:05;;;;;;;7.07;3.40;;;;;;;;;;5033537;28;20526;-65
2022/04/21 09:27:39;;;;;;;6.70;3.53;;;15.90;99.90;;;;;;5029208;28;20810;-66
2022/04/21 09:30:10;;;;;;;5.35;3.50;;;;;;;;;;5036155;28;20530;-67
2022/04/21 09:32:36;;;;;;;6.47;3.80;;;;;;;;;;5048925;28;20748;-66
2022/04/21 09:35:03;;;;;;;6.28;3.75;;;;;;;;;;5031861;28;20423;-67
2022/04/21 09:37:29;;;;;;;7.63;3.72;;;;;;;;;;5034308;28;20561;-66
2022/04/21 09:39:56;;;;;;;5.32;3.65;;;;;;;;;;5035801;28;20443;-67
2022/04/21 09:42:29;;;;;;;8.73;3.70;;;15.70;99.90;;;;;;5027754;28;20500;-67
2022/04/21 09:47:54;;;;;;;7.13;3.70;;;;;;;;;;5037240;28;20415;-67
2022/04/21 09:50:21;;;;;;;10.67;4.07;;;16.40;99.90;;;;;;5032987;28;20539;-67
2022/04/21 09:52:48;;;;;;;7.25;3.95;;;;;;;;;;5036654;28;20427;-67
2022/04/21 09:55:27;;;;;;;6.15;3.67;;;;;;;;;;5030797;28;20790;-68
2022/04/21 09:58:09;;;;;;;5.90;3.70;;;;;;;;;;5032214;28;20921;-67
2022/04/21 10:00:36;;;;;;;6.38;3.88;;;;;;;;;;5030544;28;20468;-67
2022/04/21 10:03:03;;;;;;;5.78;3.70;;;;;;;;;;5028077;28;20426;-66
2022/04/21 10:05:31;;;;;;;6.40;3.88;;;;;;;;;;5030295;28;21016;-66
2022/04/21 10:08:00;;;;;;;5.88;3.80;;;;;;;;;;5027528;28;20431;-67
2022/04/21 10:10:27;;;;;;;4.70;3.40;;;;;;;;;;5030319;28;20429;-67
2022/04/21 10:12:58;;;;;;;7.57;3.67;;;;;;;;;;5018291;28;20419;-67
2022/04/21 10:15:25;;;;;;;8.07;3.47;;;;;;;;;;5032028;28;20423;-67
2022/04/21 10:17:51;;;;;;;6.25;3.25;;;;;;;;;;5035038;28;20434;-67
2022/04/21 10:20:17;;;;;;;6.23;3.63;;;;;;;;;;5012706;28;20440;-67
2022/04/21 10:22:44;;;;;;;4.43;3.25;;;;;;;;;;5029603;28;20427;-68
2022/04/21 10:25:10;;;;;;;5.00;3.25;;;;;;;;;;5024931;28;20423;-68
2022/04/21 10:27:42;;;;;;;6.30;3.35;;;;;;;;;;5032700;28;20455;-69
2022/04/21 10:30:14;;;;;;;6.97;3.30;;;16.90;99.90;;;;;;5028722;28;20431;-67
2022/04/21 10:32:46;;;;;;;6.03;3.15;;;;;;;;;;5033464;28;20498;-66
2022/04/21 10:35:27;;;;;;;6.60;3.28;;;;;;;;;;5035374;28;20455;-67
2022/04/21 10:38:12;;;;;;;4.75;3.08;;;;;;;;;;5026498;28;20423;-67
2022/04/21 10:40:54;;;;;;;5.38;3.00;;;;;;;;;;5028014;28;20443;-67
2022/04/21 10:43:20;;;;;;;5.25;2.70;;;;;;;;;;5032333;28;20690;-67
2022/04/21 10:46:01;;;;;;;4.63;2.95;;;;;;;;;;5025781;28;20423;-67
2022/04/21 10:48:41;;;;;;;5.78;3.10;;;;;;;;;;5033914;28;20444;-67
2022/04/21 10:51:07;;;;;;;6.10;3.03;;;;;;;;;;5024857;28;20860;-67
2022/04/21 11:00:03;;;;;;;5.85;2.92;;;16.70;99.90;;;;;;5033469;28;20434;-67
2022/04/21 11:02:39;;;;;;;5.90;3.03;;;;;;;;;;5034209;28;20431;-67
2022/04/21 11:05:23;;;;;;;5.38;2.85;;;;;;;;;;5031672;28;20498;-68
2022/04/21 11:07:51;;;;;;;6.35;3.50;;;;;;;;;;5025565;28;20437;-69
2022/04/21 11:10:35;;;;;;;4.83;3.00;;;;;;;;;;5029594;28;21034;-69
2022/04/21 11:13:01;;;;;;;6.32;2.75;;;;;;;;;;5033753;28;20425;-68
2022/04/21 11:15:37;;;;;;;7.17;3.13;;;16.50;99.90;;;;;;5028403;28;20508;-68
2022/04/21 11:18:15;;;;;;;5.80;2.77;;;17.00;99.90;;;;;;5030924;28;20423;-68
2022/04/21 11:20:47;;;;;;;5.68;2.90;;;;;;;;;;5029868;28;20433;-68
2022/04/21 11:23:24;;;;;;;4.57;2.88;;;;;;;;;;5019372;28;20886;-68
2022/04/21 11:25:51;;;;;;;5.72;3.08;;;;;;;;;;5031343;28;20438;-68
2022/04/21 11:28:24;;;;;;;5.13;3.00;;;;;;;;;;5028684;28;20528;-69
2022/04/21 11:30:56;;;;;;;4.63;2.80;;;;;;;;;;5027654;28;20420;-64
2022/04/21 11:33:22;;;;;;;7.20;2.90;;;;;;;;;;5023493;28;20435;-63
2022/04/21 11:35:49;;;;;;;5.47;3.00;;;;;;;;;;5027932;28;20402;-64
2022/04/21 11:38:15;;;;;;;7.28;3.20;;;;;;;;;;5028796;28;20529;-63
2022/04/21 11:40:41;;;;;;;5.25;2.88;;;;;;;;;;5029309;28;20438;-64
2022/04/21 11:43:15;;;;;;;5.75;3.40;;;;;;;;;;5031001;28;20434;-64
2022/04/21 11:45:44;;;;;;;10.15;3.38;;;;;;;;;;5027907;28;20431;-63
2022/04/21 11:48:14;;;;;;;4.63;2.90;;;;;;;;;;5031966;28;20415;-64
2022/04/21 11:50:45;;;;;;;5.80;3.28;;;;;;;;;;5027936;28;20486;-63
2022/04/21 11:53:18;;;;;;;5.13;3.08;;;;;;;;;;5027997;28;20417;-64
2022/04/21 11:55:45;;;;;;;5.97;3.20;;;17.50;99.90;;;;;;5031131;28;20435;-64
2022/04/21 11:58:11;;;;;;;5.30;3.13;;;;;;;;;;5031747;28;20442;-64
2022/04/21 12:06:32;;;;;;;4.95;3.20;;;;;;;;;;5034329;28;20434;-64
2022/04/21 12:08:59;;;;;;;4.30;2.97;;;;;;;;;;5029880;28;20448;-63
2022/04/21 12:11:26;;;;;;;5.53;2.63;;;;;;;;;;5025597;28;20431;-63
2022/04/21 12:13:53;;;;;;;4.55;2.97;;;;;;;;;;5035478;28;20423;-65
2022/04/21 12:16:36;;;;;;;4.63;2.78;;;;;;;;;;5032909;28;20430;-64
2022/04/21 12:19:12;;;;;;;4.53;2.67;;;;;;;;;;5033138;28;20444;-64
2022/04/21 12:21:38;;;;;;;5.90;3.08;;;;;;;;;;5028937;28;20555;-64
2022/04/21 12:24:14;;;;;;;3.80;2.80;;;;;;;;;;5035394;28;20508;-64
2022/04/21 12:26:47;;;;;;;4.72;2.63;;;;;;;;;;5025388;28;20473;-63
2022/04/21 12:29:13;;;;;;;6.00;3.03;;;18.10;99.90;;;;;;5027872;28;20415;-64
2022/04/21 12:31:43;;;;;;;4.38;2.85;;;;;;;;;;5046495;28;20435;-64
2022/04/21 12:34:12;;;;;;;4.90;2.78;;;;;;;;;;5028549;28;20522;-64
2022/04/21 12:36:49;;;;;;;5.63;3.15;;;;;;;;;;5030031;28;20455;-63
2022/04/21 12:39:15;;;;;;;5.22;2.90;;;;;;;;;;5024983;28;20440;-63
2022/04/21 12:41:42;;;;;;;4.57;2.80;;;;;;;;;;5029063;28;20502;-64
2022/04/21 12:44:08;;;;;;;6.00;3.47;;;;;;;;;;5023740;28;20753;-64
2022/04/21 12:46:34;;;;;;;4.70;3.20;;;;;;;;;;5032416;28;20434;-63
2022/04/21 12:49:00;;;;;;;6.18;3.15;;;;;;;;;;5025570;28;20436;-64
2022/04/21 12:51:26;;;;;;;6.68;3.70;;;17.70;99.90;;;;;;5036690;28;20484;-63
2022/04/21 12:53:57;;;;;;;4.80;2.58;;;;;;;;;;5032527;28;20442;-64
2022/04/21 12:56:36;;;;;;;5.90;3.17;;;;;;;;;;5027412;28;20431;-64
2022/04/21 12:59:03;;;;;;;5.15;3.38;;;18.40;99.90;;;;;;5024767;28;20801;-64
2022/04/21 13:01:29;;;;;;;7.70;3.50;;;17.90;99.90;;;;;;5031512;28;20459;-64
2022/04/21 13:03:58;;;;;;;5.60;3.40;;;;;;;;;;5023536;28;20435;-64
2022/04/21 13:06:26;;;;;;;6.05;3.33;;;;;;;;;;5035328;28;20490;-65
2022/04/21 13:08:52;;;;;;;5.38;3.15;;;;;;;;;;5034023;28;20423;-63
2022/04/21 13:11:18;;;;;;;9.23;3.60;;;;;;;;;;5030521;28;20415;-64
2022/04/21 13:13:44;;;;;;;4.97;3.35;;;;;;;;;;5036474;28;20495;-64
2022/04/21 13:16:10;;;;;;;4.63;3.37;;;;;;;;;;5030839;28;20475;-64
2022/04/21 13:18:36;;;;;;;5.50;3.40;;;;;;;;;;5034653;28;20431;-63
2022/04/21 13:23:47;;;;;;;6.28;3.63;;;;;;;;;;5031494;28;20411;-63
2022/04/21 13:26:13;;;;;;;5.45;3.33;;;;;;;;;;5029078;28;20488;-63
2022/04/21 13:28:39;;;;;;;4.55;3.30;;;;;;;;;;5009215;28;20496;-63
2022/04/21 13:33:50;;;;;;;4.93;3.05;;;;;;;;;;5034509;28;20454;-62
2022/04/21 13:36:16;;;;;;;4.50;2.80;;;;;;;;;;5027060;28;20508;-64
2022/04/21 13:38:44;;;;;;;6.20;3.00;;;;;;;;;;5031507;28;20531;-62
2022/04/21 13:41:11;;;;;;;5.03;3.40;;;;;;;;;;5034328;28;20431;-63
2022/04/21 13:43:37;;;;;;;5.05;3.80;;;;;;;;;;5037288;28;20423;-63
2022/04/21 13:46:03;;;;;;;5.70;3.85;;;;;;;;;;5034984;28;20433;-63
2022/04/21 13:48:29;;;;;;;5.45;4.05;;;;;;;;;;5025902;28;20420;-63
2022/04/21 13:50:56;;;;;;;5.90;4.03;;;;;;;;;;5025239;28;20482;-64
2022/04/21 13:53:22;;;;;;;6.28;3.88;;;;;;;;;;5029283;28;20421;-63
2022/04/21 13:55:49;;;;;;;5.35;3.42;;;;;;;;;;5033227;28;20712;-62
2022/04/21 13:58:15;;;;;;;4.35;3.20;;;;;;;;;;5022804;28;20926;-63
2022/04/21 14:00:45;;;;;;;5.20;3.60;;;18.10;99.90;;;;;;5033880;28;20448;-63
2022/04/21 14:03:12;;;;;;;6.85;4.07;;;;;;;;;;5030096;28;20540;-63
2022/04/21 14:05:39;;;;;;;7.15;3.83;;;;;;;;;;5033010;28;20904;-63
2022/04/21 14:08:06;;;;;;;6.82;3.92;;;;;;;;;;5046502;28;20674;-63
2022/04/21 14:10:33;;;;;;;5.03;3.60;;;;;;;;;;5044288;28;20427;-63
2022/04/21 14:12:59;;;;;;;6.03;4.10;;;;;;;;;;5027703;28;20419;-63
2022/04/21 14:15:25;;;;;;;6.30;3.97;;;;;;;;;;5030612;28;20455;-63
2022/04/21 14:17:52;;;;;;;8.48;4.10;;;;;;;;;;5024813;28;20443;-64
2022/04/21 14:20:18;;;;;;;6.88;4.70;;;;;;;;;;5020102;28;20443;-64
2022/04/21 14:22:44;;;;;;;6.37;4.33;;;;;;;;;;5025209;28;20431;-64
2022/04/21 14:25:10;;;;;;;7.90;4.40;;;;;;;;;;5024911;28;21028;-63
2022/04/21 14:27:36;;;;;;;6.15;3.90;;;;;;;;;;5028429;28;20433;-63
2022/04/21 14:30:03;;;;;;;5.70;4.22;;;;;;;;;;5021140;28;20434;-63
2022/04/21 14:32:29;;;;;;;5.82;4.20;;;;;;;;;;5025226;28;20445;-63
2022/04/21 14:34:56;;;;;;;5.97;4.40;;;;;;;;;;5030722;28;20431;-64
2022/04/21 14:45:37;;;;;;;11.20;5.32;;;;;;;;;;5031094;28;21027;-62
2022/04/21 14:48:03;;;;;;;7.55;5.40;;;;;;;;;;5029378;28;20463;-63
2022/04/21 14:50:29;;;;;;;8.00;5.00;;;;;;;;;;5028332;28;20517;-62
2022/04/21 14:52:57;;;;;;;6.88;5.10;;;;;;;;;;5031876;28;20427;-62
2022/04/21 14:55:24;;;;;;;6.25;5.00;;;17.80;99.90;;;;;;5029615;28;20446;-62
2022/04/21 14:57:50;;;;;;;9.73;5.60;;;;;;;;;;5036738;28;20503;-63
2022/04/21 15:00:16;;;;;;;8.02;5.85;;;;;;;;;;5031333;28;20443;-63
2022/04/21 15:02:42;;;;;;;10.88;5.20;;;;;;;;;;5036484;28;20760;-63
2022/04/21 15:05:09;;;;;;;8.98;5.25;;;;;;;;;;5031617;28;20436;-63
2022/04/21 15:07:35;;;;;;;7.30;5.20;;;;;;;;;;5024954;28;20638;-62
2022/04/21 15:10:01;;;;;;;12.40;5.55;;;;;;;;;;5031636;28;20871;-63
2022/04/21 15:12:27;;;;;;;8.10;5.60;;;18.40;99.90;;;;;;5032517;28;20900;-62
2022/04/21 15:14:53;;;;;;;9.65;5.85;;;;;;;;;;5026571;28;20488;-63
2022/04/21 15:17:19;;;;;;;10.57;5.78;;;18.30;99.90;;;;;;5035201;28;20434;-63
2022/04/21 15:19:47;;;;;;;8.65;5.43;;;;;;;;;;5034172;28;20445;-63
2022/04/21 15:22:15;;;;;;;8.15;5.63;;;;;;;;;;5035670;28;20522;-62
2022/04/21 15:24:42;;;;;;;7.30;5.70;;;;;;;;;;5029278;28;20438;-62